sensor_id;sensor_type;location;lat;lon;timestamp;P1;durP1;ratioP1;P2;durP2;ratioP2
21233;SDS011;10774;42.178;26.578;2023-04-24T00:01:13;11.45;;;6.60;;
21233;SDS011;10774;42.178;26.578;2023-04-24T00:03:38;8.55;;;6.03;;
21233;SDS011;10774;42.178;26.578;2023-04-24T00:06:04;10.18;;;5.68;;
21233;SDS011;10774;42.178;26.578;2023-04-24T00:08:31;12.95;;;7.82;;
21233;SDS011;10774;42.178;26.578;2023-04-24T00:10:57;12.18;;;6.55;;
21233;SDS011;10774;42.178;26.578;2023-04-24T00:13:22;10.20;;;4.95;;
21233;SDS011;10774;42.178;26.578;2023-04-24T00:15:48;8.73;;;4.90;;
21233;SDS011;10774;42.178;26.578;2023-04-24T00:18:13;10.20;;;5.05;;
21233;SDS011;10774;42.178;26.578;2023-04-24T00:20:39;9.02;;;5.82;;
21233;SDS011;10774;42.178;26.578;2023-04-24T00:23:04;9.30;;;4.90;;
21233;SDS011;10774;42.178;26.578;2023-04-24T00:25:30;10.23;;;5.40;;
21233;SDS011;10774;42.178;26.578;2023-04-24T00:27:55;9.55;;;5.35;;
21233;SDS011;10774;42.178;26.578;2023-04-24T00:30:21;9.90;;;5.53;;
21233;SDS011;10774;42.178;26.578;2023-04-24T00:32:46;9.85;;;5.57;;
21233;SDS011;10774;42.178;26.578;2023-04-24T00:35:12;7.45;;;5.03;;
21233;SDS011;10774;42.178;26.578;2023-04-24T00:37:37;12.65;;;5.10;;
21233;SDS011;10774;42.178;26.578;2023-04-24T00:40:03;11.13;;;4.80;;
21233;SDS011;10774;42.178;26.578;2023-04-24T00:42:28;7.05;;;5.10;;
21233;SDS011;10774;42.178;26.578;2023-04-24T00:44:55;8.10;;;4.60;;
21233;SDS011;10774;42.178;26.578;2023-04-24T00:47:22;7.40;;;4.22;;
21233;SDS011;10774;42.178;26.578;2023-04-24T00:49:48;6.90;;;4.47;;
21233;SDS011;10774;42.178;26.578;2023-04-24T00:52:14;8.80;;;5.13;;
21233;SDS011;10774;42.178;26.578;2023-04-24T00:54:42;7.15;;;4.15;;
21233;SDS011;10774;42.178;26.578;2023-04-24T00:57:11;5.78;;;4.70;;
21233;SDS011;10774;42.178;26.578;2023-04-24T00:59:40;6.05;;;4.50;;
21233;SDS011;10774;42.178;26.578;2023-04-24T01:02:07;6.80;;;4.80;;
21233;SDS011;10774;42.178;26.578;2023-04-24T01:04:33;8.48;;;4.63;;
21233;SDS011;10774;42.178;26.578;2023-04-24T01:07:00;6.75;;;4.75;;
21233;SDS011;10774;42.178;26.578;2023-04-24T01:09:25;4.93;;;4.13;;
21233;SDS011;10774;42.178;26.578;2023-04-24T01:11:51;8.25;;;4.53;;
21233;SDS011;10774;42.178;26.578;2023-04-24T01:14:17;6.70;;;4.20;;
21233;SDS011;10774;42.178;26.578;2023-04-24T01:16:43;8.15;;;4.85;;
21233;SDS011;10774;42.178;26.578;2023-04-24T01:19:08;7.97;;;4.63;;
21233;SDS011;10774;42.178;26.578;2023-04-24T01:21:37;8.77;;;4.97;;
21233;SDS011;10774;42.178;26.578;2023-04-24T01:24:04;9.63;;;4.93;;
21233;SDS011;10774;42.178;26.578;2023-04-24T01:26:30;6.55;;;4.25;;
21233;SDS011;10774;42.178;26.578;2023-04-24T01:28:56;9.60;;;4.60;;
21233;SDS011;10774;42.178;26.578;2023-04-24T01:31:22;7.13;;;4.63;;
21233;SDS011;10774;42.178;26.578;2023-04-24T01:33:47;8.30;;;4.38;;
21233;SDS011;10774;42.178;26.578;2023-04-24T01:36:13;8.63;;;4.60;;
21233;SDS011;10774;42.178;26.578;2023-04-24T01:38:39;8.15;;;4.45;;
21233;SDS011;10774;42.178;26.578;2023-04-24T01:41:04;7.30;;;4.78;;
21233;SDS011;10774;42.178;26.578;2023-04-24T01:43:30;6.40;;;4.35;;
21233;SDS011;10774;42.178;26.578;2023-04-24T01:45:56;7.28;;;4.20;;
21233;SDS011;10774;42.178;26.578;2023-04-24T01:48:22;8.80;;;5.40;;
21233;SDS011;10774;42.178;26.578;2023-04-24T01:50:47;7.38;;;5.00;;
21233;SDS011;10774;42.178;26.578;2023-04-24T01:53:13;9.48;;;4.85;;
21233;SDS011;10774;42.178;26.578;2023-04-24T01:55:38;13.80;;;5.53;;
21233;SDS011;10774;42.178;26.578;2023-04-24T01:58:04;11.73;;;5.88;;
21233;SDS011;10774;42.178;26.578;2023-04-24T02:00:29;7.93;;;5.00;;
21233;SDS011;10774;42.178;26.578;2023-04-24T02:02:55;7.03;;;5.25;;
21233;SDS011;10774;42.178;26.578;2023-04-24T02:05:20;11.18;;;5.43;;
21233;SDS011;10774;42.178;26.578;2023-04-24T02:07:46;8.88;;;5.18;;
21233;SDS011;10774;42.178;26.578;2023-04-24T02:10:11;7.70;;;5.07;;
21233;SDS011;10774;42.178;26.578;2023-04-24T02:12:37;11.68;;;5.00;;
21233;SDS011;10774;42.178;26.578;2023-04-24T02:15:03;11.05;;;5.38;;
21233;SDS011;10774;42.178;26.578;2023-04-24T02:17:29;7.97;;;5.20;;
21233;SDS011;10774;42.178;26.578;2023-04-24T02:19:55;9.95;;;5.65;;
21233;SDS011;10774;42.178;26.578;2023-04-24T02:22:21;11.32;;;5.65;;
21233;SDS011;10774;42.178;26.578;2023-04-24T02:24:46;7.45;;;5.00;;
21233;SDS011;10774;42.178;26.578;2023-04-24T02:27:12;8.82;;;5.40;;
21233;SDS011;10774;42.178;26.578;2023-04-24T02:29:37;8.13;;;5.45;;
21233;SDS011;10774;42.178;26.578;2023-04-24T02:32:03;9.68;;;6.22;;
21233;SDS011;10774;42.178;26.578;2023-04-24T02:34:28;13.88;;;6.55;;
21233;SDS011;10774;42.178;26.578;2023-04-24T02:36:54;8.95;;;5.75;;
21233;SDS011;10774;42.178;26.578;2023-04-24T02:39:19;11.25;;;6.25;;
21233;SDS011;10774;42.178;26.578;2023-04-24T02:41:45;10.77;;;6.20;;
21233;SDS011;10774;42.178;26.578;2023-04-24T02:44:10;8.25;;;5.35;;
21233;SDS011;10774;42.178;26.578;2023-04-24T02:46:36;10.30;;;6.20;;
21233;SDS011;10774;42.178;26.578;2023-04-24T02:49:01;8.98;;;6.13;;
21233;SDS011;10774;42.178;26.578;2023-04-24T02:51:27;12.48;;;7.38;;
21233;SDS011;10774;42.178;26.578;2023-04-24T02:53:53;9.68;;;6.80;;
21233;SDS011;10774;42.178;26.578;2023-04-24T02:56:19;11.63;;;7.57;;
21233;SDS011;10774;42.178;26.578;2023-04-24T02:58:44;13.30;;;7.10;;
21233;SDS011;10774;42.178;26.578;2023-04-24T03:01:10;13.10;;;6.88;;
21233;SDS011;10774;42.178;26.578;2023-04-24T03:03:36;21.67;;;14.25;;
21233;SDS011;10774;42.178;26.578;2023-04-24T03:06:02;17.00;;;10.55;;
21233;SDS011;10774;42.178;26.578;2023-04-24T03:08:30;18.13;;;14.70;;
21233;SDS011;10774;42.178;26.578;2023-04-24T03:10:56;14.88;;;11.35;;
21233;SDS011;10774;42.178;26.578;2023-04-24T03:13:22;9.55;;;5.65;;
21233;SDS011;10774;42.178;26.578;2023-04-24T03:15:47;8.90;;;4.70;;
21233;SDS011;10774;42.178;26.578;2023-04-24T03:18:13;11.75;;;5.45;;
21233;SDS011;10774;42.178;26.578;2023-04-24T03:20:38;7.40;;;4.90;;
21233;SDS011;10774;42.178;26.578;2023-04-24T03:23:04;7.75;;;4.93;;
21233;SDS011;10774;42.178;26.578;2023-04-24T03:25:29;6.93;;;4.90;;
21233;SDS011;10774;42.178;26.578;2023-04-24T03:27:55;8.75;;;5.10;;
21233;SDS011;10774;42.178;26.578;2023-04-24T03:30:20;6.93;;;4.80;;
21233;SDS011;10774;42.178;26.578;2023-04-24T03:32:46;5.32;;;4.30;;
21233;SDS011;10774;42.178;26.578;2023-04-24T03:35:11;8.35;;;4.53;;
21233;SDS011;10774;42.178;26.578;2023-04-24T03:37:36;9.80;;;4.82;;
21233;SDS011;10774;42.178;26.578;2023-04-24T03:40:02;8.07;;;6.00;;
21233;SDS011;10774;42.178;26.578;2023-04-24T03:42:28;11.90;;;8.82;;
21233;SDS011;10774;42.178;26.578;2023-04-24T03:44:53;18.05;;;11.02;;
21233;SDS011;10774;42.178;26.578;2023-04-24T03:47:19;18.65;;;12.20;;
21233;SDS011;10774;42.178;26.578;2023-04-24T03:49:44;17.08;;;12.27;;
21233;SDS011;10774;42.178;26.578;2023-04-24T03:52:09;20.83;;;14.63;;
21233;SDS011;10774;42.178;26.578;2023-04-24T03:54:35;21.67;;;15.38;;
21233;SDS011;10774;42.178;26.578;2023-04-24T03:57:00;19.90;;;13.98;;
21233;SDS011;10774;42.178;26.578;2023-04-24T03:59:26;22.92;;;15.90;;
21233;SDS011;10774;42.178;26.578;2023-04-24T04:01:51;48.15;;;28.88;;
21233;SDS011;10774;42.178;26.578;2023-04-24T04:04:17;30.40;;;16.70;;
21233;SDS011;10774;42.178;26.578;2023-04-24T04:06:42;26.88;;;15.90;;
21233;SDS011;10774;42.178;26.578;2023-04-24T04:09:09;28.30;;;18.63;;
21233;SDS011;10774;42.178;26.578;2023-04-24T04:11:35;27.63;;;17.45;;
21233;SDS011;10774;42.178;26.578;2023-04-24T04:14:00;24.20;;;16.70;;
21233;SDS011;10774;42.178;26.578;2023-04-24T04:16:26;22.30;;;14.45;;
21233;SDS011;10774;42.178;26.578;2023-04-24T04:18:51;31.33;;;15.02;;
21233;SDS011;10774;42.178;26.578;2023-04-24T04:21:17;22.02;;;16.40;;
21233;SDS011;10774;42.178;26.578;2023-04-24T04:23:42;28.05;;;17.95;;
21233;SDS011;10774;42.178;26.578;2023-04-24T04:26:08;13.20;;;8.20;;
21233;SDS011;10774;42.178;26.578;2023-04-24T04:28:34;16.42;;;8.05;;
21233;SDS011;10774;42.178;26.578;2023-04-24T04:30:59;14.40;;;8.27;;
21233;SDS011;10774;42.178;26.578;2023-04-24T04:33:25;20.40;;;9.40;;
21233;SDS011;10774;42.178;26.578;2023-04-24T04:35:51;17.65;;;10.68;;
21233;SDS011;10774;42.178;26.578;2023-04-24T04:38:21;16.95;;;11.80;;
21233;SDS011;10774;42.178;26.578;2023-04-24T04:40:48;15.82;;;9.77;;
21233;SDS011;10774;42.178;26.578;2023-04-24T04:43:13;14.82;;;8.88;;
21233;SDS011;10774;42.178;26.578;2023-04-24T04:45:41;14.50;;;8.57;;
21233;SDS011;10774;42.178;26.578;2023-04-24T04:48:08;15.20;;;7.95;;
21233;SDS011;10774;42.178;26.578;2023-04-24T04:50:34;14.50;;;9.55;;
21233;SDS011;10774;42.178;26.578;2023-04-24T04:53:00;19.15;;;10.65;;
21233;SDS011;10774;42.178;26.578;2023-04-24T04:55:25;16.38;;;12.07;;
21233;SDS011;10774;42.178;26.578;2023-04-24T04:57:51;23.98;;;12.07;;
21233;SDS011;10774;42.178;26.578;2023-04-24T05:00:17;24.70;;;16.33;;
21233;SDS011;10774;42.178;26.578;2023-04-24T05:02:42;31.23;;;14.82;;
21233;SDS011;10774;42.178;26.578;2023-04-24T05:05:07;21.50;;;13.00;;
21233;SDS011;10774;42.178;26.578;2023-04-24T05:07:35;21.73;;;11.18;;
21233;SDS011;10774;42.178;26.578;2023-04-24T05:10:00;13.68;;;10.15;;
21233;SDS011;10774;42.178;26.578;2023-04-24T05:12:25;20.23;;;10.80;;
21233;SDS011;10774;42.178;26.578;2023-04-24T05:14:51;22.63;;;14.32;;
21233;SDS011;10774;42.178;26.578;2023-04-24T05:17:17;18.08;;;9.30;;
21233;SDS011;10774;42.178;26.578;2023-04-24T05:19:42;19.95;;;8.63;;
21233;SDS011;10774;42.178;26.578;2023-04-24T05:22:08;16.63;;;7.88;;
21233;SDS011;10774;42.178;26.578;2023-04-24T05:24:34;13.93;;;9.57;;
21233;SDS011;10774;42.178;26.578;2023-04-24T05:27:00;16.30;;;8.60;;
21233;SDS011;10774;42.178;26.578;2023-04-24T05:29:27;18.23;;;7.35;;
21233;SDS011;10774;42.178;26.578;2023-04-24T05:31:53;13.23;;;6.70;;
21233;SDS011;10774;42.178;26.578;2023-04-24T05:34:18;13.38;;;8.35;;
21233;SDS011;10774;42.178;26.578;2023-04-24T05:36:43;12.68;;;7.97;;
21233;SDS011;10774;42.178;26.578;2023-04-24T05:39:09;17.25;;;7.45;;
21233;SDS011;10774;42.178;26.578;2023-04-24T05:41:35;12.30;;;6.03;;
21233;SDS011;10774;42.178;26.578;2023-04-24T05:44:00;14.82;;;6.82;;
21233;SDS011;10774;42.178;26.578;2023-04-24T05:46:25;19.33;;;8.57;;
21233;SDS011;10774;42.178;26.578;2023-04-24T05:48:51;14.93;;;9.48;;
21233;SDS011;10774;42.178;26.578;2023-04-24T05:51:16;15.60;;;9.45;;
21233;SDS011;10774;42.178;26.578;2023-04-24T05:53:42;16.58;;;9.57;;
21233;SDS011;10774;42.178;26.578;2023-04-24T05:56:07;19.08;;;9.95;;
21233;SDS011;10774;42.178;26.578;2023-04-24T05:58:33;17.10;;;10.50;;
21233;SDS011;10774;42.178;26.578;2023-04-24T06:00:58;26.70;;;13.45;;
21233;SDS011;10774;42.178;26.578;2023-04-24T06:03:25;22.25;;;12.18;;
21233;SDS011;10774;42.178;26.578;2023-04-24T06:05:52;17.75;;;11.25;;
21233;SDS011;10774;42.178;26.578;2023-04-24T06:08:18;33.22;;;18.38;;
21233;SDS011;10774;42.178;26.578;2023-04-24T06:10:43;18.73;;;12.80;;
21233;SDS011;10774;42.178;26.578;2023-04-24T06:13:09;19.17;;;11.45;;
21233;SDS011;10774;42.178;26.578;2023-04-24T06:15:34;41.75;;;23.75;;
21233;SDS011;10774;42.178;26.578;2023-04-24T06:18:00;25.08;;;16.13;;
21233;SDS011;10774;42.178;26.578;2023-04-24T06:20:26;22.90;;;13.00;;
21233;SDS011;10774;42.178;26.578;2023-04-24T06:22:51;21.13;;;13.65;;
21233;SDS011;10774;42.178;26.578;2023-04-24T06:25:17;20.75;;;10.48;;
21233;SDS011;10774;42.178;26.578;2023-04-24T06:27:44;10.45;;;5.88;;
21233;SDS011;10774;42.178;26.578;2023-04-24T06:30:09;7.47;;;4.18;;
21233;SDS011;10774;42.178;26.578;2023-04-24T06:32:35;8.32;;;3.78;;
21233;SDS011;10774;42.178;26.578;2023-04-24T06:35:00;7.53;;;3.58;;
21233;SDS011;10774;42.178;26.578;2023-04-24T06:37:26;7.47;;;4.18;;
21233;SDS011;10774;42.178;26.578;2023-04-24T06:39:51;9.88;;;4.00;;
21233;SDS011;10774;42.178;26.578;2023-04-24T06:42:16;6.05;;;3.63;;
21233;SDS011;10774;42.178;26.578;2023-04-24T06:44:42;8.18;;;3.30;;
21233;SDS011;10774;42.178;26.578;2023-04-24T06:47:08;6.43;;;3.40;;
21233;SDS011;10774;42.178;26.578;2023-04-24T06:49:35;7.68;;;3.00;;
21233;SDS011;10774;42.178;26.578;2023-04-24T06:52:01;4.28;;;2.97;;
21233;SDS011;10774;42.178;26.578;2023-04-24T06:54:27;6.28;;;3.13;;
21233;SDS011;10774;42.178;26.578;2023-04-24T06:56:52;13.32;;;3.38;;
21233;SDS011;10774;42.178;26.578;2023-04-24T06:59:17;7.47;;;2.92;;
21233;SDS011;10774;42.178;26.578;2023-04-24T07:01:43;11.15;;;3.15;;
21233;SDS011;10774;42.178;26.578;2023-04-24T07:04:08;10.15;;;2.85;;
21233;SDS011;10774;42.178;26.578;2023-04-24T07:06:34;12.82;;;3.13;;
21233;SDS011;10774;42.178;26.578;2023-04-24T07:09:00;7.97;;;2.13;;
21233;SDS011;10774;42.178;26.578;2023-04-24T07:11:26;5.05;;;2.75;;
21233;SDS011;10774;42.178;26.578;2023-04-24T07:13:54;7.10;;;2.25;;
21233;SDS011;10774;42.178;26.578;2023-04-24T07:16:19;9.20;;;2.22;;
21233;SDS011;10774;42.178;26.578;2023-04-24T07:18:45;6.32;;;2.10;;
21233;SDS011;10774;42.178;26.578;2023-04-24T07:21:10;6.80;;;2.20;;
21233;SDS011;10774;42.178;26.578;2023-04-24T07:23:36;5.93;;;2.35;;
21233;SDS011;10774;42.178;26.578;2023-04-24T07:26:02;8.02;;;2.08;;
21233;SDS011;10774;42.178;26.578;2023-04-24T07:28:27;11.00;;;2.55;;
21233;SDS011;10774;42.178;26.578;2023-04-24T07:30:56;4.78;;;2.00;;
21233;SDS011;10774;42.178;26.578;2023-04-24T07:33:25;6.28;;;1.80;;
21233;SDS011;10774;42.178;26.578;2023-04-24T07:35:51;4.18;;;1.90;;
21233;SDS011;10774;42.178;26.578;2023-04-24T07:38:17;6.28;;;2.33;;
21233;SDS011;10774;42.178;26.578;2023-04-24T07:40:46;4.47;;;2.20;;
21233;SDS011;10774;42.178;26.578;2023-04-24T07:43:11;6.38;;;2.20;;
21233;SDS011;10774;42.178;26.578;2023-04-24T07:45:37;7.07;;;2.20;;
21233;SDS011;10774;42.178;26.578;2023-04-24T07:48:03;10.23;;;2.42;;
21233;SDS011;10774;42.178;26.578;2023-04-24T07:50:28;7.85;;;1.95;;
21233;SDS011;10774;42.178;26.578;2023-04-24T07:52:54;7.70;;;2.72;;
21233;SDS011;10774;42.178;26.578;2023-04-24T07:55:19;4.22;;;2.17;;
21233;SDS011;10774;42.178;26.578;2023-04-24T07:57:45;8.18;;;1.80;;
21233;SDS011;10774;42.178;26.578;2023-04-24T08:00:10;8.52;;;2.20;;
21233;SDS011;10774;42.178;26.578;2023-04-24T08:02:36;5.07;;;2.15;;
21233;SDS011;10774;42.178;26.578;2023-04-24T08:05:02;8.70;;;2.67;;
21233;SDS011;10774;42.178;26.578;2023-04-24T08:07:28;4.68;;;2.58;;
21233;SDS011;10774;42.178;26.578;2023-04-24T08:09:54;4.55;;;2.45;;
21233;SDS011;10774;42.178;26.578;2023-04-24T08:12:19;4.20;;;2.30;;
21233;SDS011;10774;42.178;26.578;2023-04-24T08:14:45;5.97;;;2.40;;
21233;SDS011;10774;42.178;26.578;2023-04-24T08:17:10;6.18;;;2.17;;
21233;SDS011;10774;42.178;26.578;2023-04-24T08:19:36;7.30;;;2.13;;
21233;SDS011;10774;42.178;26.578;2023-04-24T08:22:01;6.57;;;2.40;;
21233;SDS011;10774;42.178;26.578;2023-04-24T08:24:29;3.53;;;1.88;;
21233;SDS011;10774;42.178;26.578;2023-04-24T08:26:54;8.13;;;2.15;;
21233;SDS011;10774;42.178;26.578;2023-04-24T08:29:21;12.18;;;2.30;;
21233;SDS011;10774;42.178;26.578;2023-04-24T08:31:47;3.38;;;1.95;;
21233;SDS011;10774;42.178;26.578;2023-04-24T08:34:12;7.85;;;2.40;;
21233;SDS011;10774;42.178;26.578;2023-04-24T08:36:38;6.47;;;2.10;;
21233;SDS011;10774;42.178;26.578;2023-04-24T08:39:05;10.88;;;2.92;;
21233;SDS011;10774;42.178;26.578;2023-04-24T08:41:31;8.52;;;2.60;;
21233;SDS011;10774;42.178;26.578;2023-04-24T08:43:59;6.47;;;2.63;;
21233;SDS011;10774;42.178;26.578;2023-04-24T08:46:26;4.93;;;2.65;;
21233;SDS011;10774;42.178;26.578;2023-04-24T08:48:52;8.02;;;2.53;;
21233;SDS011;10774;42.178;26.578;2023-04-24T08:51:18;9.13;;;2.95;;
21233;SDS011;10774;42.178;26.578;2023-04-24T08:53:45;5.13;;;2.25;;
21233;SDS011;10774;42.178;26.578;2023-04-24T08:56:11;4.63;;;2.35;;
21233;SDS011;10774;42.178;26.578;2023-04-24T08:58:37;6.30;;;3.17;;
21233;SDS011;10774;42.178;26.578;2023-04-24T09:01:03;6.05;;;3.08;;
21233;SDS011;10774;42.178;26.578;2023-04-24T09:03:30;4.95;;;2.88;;
21233;SDS011;10774;42.178;26.578;2023-04-24T09:05:56;5.85;;;3.28;;
21233;SDS011;10774;42.178;26.578;2023-04-24T09:08:24;6.43;;;2.80;;
21233;SDS011;10774;42.178;26.578;2023-04-24T09:10:51;5.63;;;2.90;;
21233;SDS011;10774;42.178;26.578;2023-04-24T09:13:16;7.05;;;2.70;;
21233;SDS011;10774;42.178;26.578;2023-04-24T09:15:44;6.68;;;2.88;;
21233;SDS011;10774;42.178;26.578;2023-04-24T09:18:10;7.03;;;3.00;;
21233;SDS011;10774;42.178;26.578;2023-04-24T09:20:38;5.63;;;2.50;;
21233;SDS011;10774;42.178;26.578;2023-04-24T09:23:28;6.90;;;2.42;;
21233;SDS011;10774;42.178;26.578;2023-04-24T09:25:55;8.73;;;2.70;;
21233;SDS011;10774;42.178;26.578;2023-04-24T09:28:25;5.88;;;2.13;;
21233;SDS011;10774;42.178;26.578;2023-04-24T09:31:14;7.47;;;2.35;;
21233;SDS011;10774;42.178;26.578;2023-04-24T09:33:56;8.50;;;2.63;;
21233;SDS011;10774;42.178;26.578;2023-04-24T09:36:29;18.63;;;3.47;;
21233;SDS011;10774;42.178;26.578;2023-04-24T09:38:58;9.40;;;3.25;;
21233;SDS011;10774;42.178;26.578;2023-04-24T09:41:24;4.15;;;2.58;;
21233;SDS011;10774;42.178;26.578;2023-04-24T09:43:50;6.40;;;2.45;;
21233;SDS011;10774;42.178;26.578;2023-04-24T09:46:18;8.38;;;2.60;;
21233;SDS011;10774;42.178;26.578;2023-04-24T09:48:44;7.35;;;3.22;;
21233;SDS011;10774;42.178;26.578;2023-04-24T09:51:10;5.90;;;3.15;;
21233;SDS011;10774;42.178;26.578;2023-04-24T09:53:36;5.38;;;3.13;;
21233;SDS011;10774;42.178;26.578;2023-04-24T09:56:02;6.40;;;2.80;;
21233;SDS011;10774;42.178;26.578;2023-04-24T09:58:31;8.05;;;3.08;;
21233;SDS011;10774;42.178;26.578;2023-04-24T10:00:57;6.20;;;3.00;;
21233;SDS011;10774;42.178;26.578;2023-04-24T10:03:25;4.82;;;2.90;;
21233;SDS011;10774;42.178;26.578;2023-04-24T10:05:52;3.95;;;2.58;;
21233;SDS011;10774;42.178;26.578;2023-04-24T10:08:18;7.75;;;2.60;;
21233;SDS011;10774;42.178;26.578;2023-04-24T10:10:45;3.58;;;2.67;;
21233;SDS011;10774;42.178;26.578;2023-04-24T10:13:11;5.20;;;2.58;;
21233;SDS011;10774;42.178;26.578;2023-04-24T10:15:38;5.75;;;2.33;;
21233;SDS011;10774;42.178;26.578;2023-04-24T10:18:05;4.72;;;2.53;;
21233;SDS011;10774;42.178;26.578;2023-04-24T10:20:31;4.75;;;2.38;;
21233;SDS011;10774;42.178;26.578;2023-04-24T10:22:59;6.68;;;2.45;;
21233;SDS011;10774;42.178;26.578;2023-04-24T10:25:28;5.70;;;2.70;;
21233;SDS011;10774;42.178;26.578;2023-04-24T10:27:56;6.05;;;2.72;;
21233;SDS011;10774;42.178;26.578;2023-04-24T10:30:24;5.25;;;2.58;;
21233;SDS011;10774;42.178;26.578;2023-04-24T10:32:51;6.30;;;2.50;;
21233;SDS011;10774;42.178;26.578;2023-04-24T10:35:17;5.75;;;2.13;;
21233;SDS011;10774;42.178;26.578;2023-04-24T10:37:51;5.20;;;1.75;;
21233;SDS011;10774;42.178;26.578;2023-04-24T10:40:27;5.78;;;2.47;;
21233;SDS011;10774;42.178;26.578;2023-04-24T10:42:57;4.93;;;2.08;;
21233;SDS011;10774;42.178;26.578;2023-04-24T10:45:23;7.10;;;2.38;;
21233;SDS011;10774;42.178;26.578;2023-04-24T10:50:47;5.28;;;2.40;;
21233;SDS011;10774;42.178;26.578;2023-04-24T10:53:17;5.45;;;2.38;;
21233;SDS011;10774;42.178;26.578;2023-04-24T10:58:11;5.63;;;2.65;;
21233;SDS011;10774;42.178;26.578;2023-04-24T11:00:40;4.25;;;2.40;;
21233;SDS011;10774;42.178;26.578;2023-04-24T11:03:07;7.03;;;2.85;;
21233;SDS011;10774;42.178;26.578;2023-04-24T11:05:49;6.47;;;2.92;;
21233;SDS011;10774;42.178;26.578;2023-04-24T11:08:15;5.70;;;2.63;;
21233;SDS011;10774;42.178;26.578;2023-04-24T11:10:54;6.05;;;2.40;;
21233;SDS011;10774;42.178;26.578;2023-04-24T11:13:25;5.70;;;3.05;;
21233;SDS011;10774;42.178;26.578;2023-04-24T11:18:41;6.43;;;2.83;;
21233;SDS011;10774;42.178;26.578;2023-04-24T11:21:15;6.97;;;3.00;;
21233;SDS011;10774;42.178;26.578;2023-04-24T11:23:42;4.47;;;2.60;;
21233;SDS011;10774;42.178;26.578;2023-04-24T11:26:11;7.32;;;2.50;;
21233;SDS011;10774;42.178;26.578;2023-04-24T11:28:47;4.53;;;2.50;;
21233;SDS011;10774;42.178;26.578;2023-04-24T11:34:11;9.38;;;2.42;;
21233;SDS011;10774;42.178;26.578;2023-04-24T11:36:39;6.80;;;3.70;;
21233;SDS011;10774;42.178;26.578;2023-04-24T11:39:05;4.00;;;3.10;;
21233;SDS011;10774;42.178;26.578;2023-04-24T11:41:31;6.60;;;3.85;;
21233;SDS011;10774;42.178;26.578;2023-04-24T11:43:58;11.77;;;4.00;;
21233;SDS011;10774;42.178;26.578;2023-04-24T11:46:26;8.73;;;4.00;;
21233;SDS011;10774;42.178;26.578;2023-04-24T11:48:53;5.57;;;2.70;;
21233;SDS011;10774;42.178;26.578;2023-04-24T11:51:19;7.40;;;3.10;;
21233;SDS011;10774;42.178;26.578;2023-04-24T11:53:44;5.65;;;2.08;;
21233;SDS011;10774;42.178;26.578;2023-04-24T11:56:10;4.25;;;2.30;;
21233;SDS011;10774;42.178;26.578;2023-04-24T11:58:36;7.75;;;2.63;;
21233;SDS011;10774;42.178;26.578;2023-04-24T12:01:03;6.68;;;2.10;;
21233;SDS011;10774;42.178;26.578;2023-04-24T12:03:30;6.80;;;2.80;;
21233;SDS011;10774;42.178;26.578;2023-04-24T12:06:08;6.57;;;2.63;;
21233;SDS011;10774;42.178;26.578;2023-04-24T12:08:35;8.27;;;3.85;;
21233;SDS011;10774;42.178;26.578;2023-04-24T12:11:01;5.00;;;2.50;;
21233;SDS011;10774;42.178;26.578;2023-04-24T12:13:28;4.43;;;2.75;;
21233;SDS011;10774;42.178;26.578;2023-04-24T12:15:54;7.45;;;2.90;;
21233;SDS011;10774;42.178;26.578;2023-04-24T12:18:22;4.97;;;2.35;;
21233;SDS011;10774;42.178;26.578;2023-04-24T12:20:48;3.95;;;2.72;;
21233;SDS011;10774;42.178;26.578;2023-04-24T12:23:14;6.90;;;3.55;;
21233;SDS011;10774;42.178;26.578;2023-04-24T12:25:39;6.45;;;4.60;;
21233;SDS011;10774;42.178;26.578;2023-04-24T12:30:32;6.18;;;2.50;;
21233;SDS011;10774;42.178;26.578;2023-04-24T12:33:04;5.75;;;2.95;;
21233;SDS011;10774;42.178;26.578;2023-04-24T12:35:31;6.90;;;3.10;;
21233;SDS011;10774;42.178;26.578;2023-04-24T12:38:11;6.85;;;2.67;;
21233;SDS011;10774;42.178;26.578;2023-04-24T12:40:38;7.93;;;2.83;;
21233;SDS011;10774;42.178;26.578;2023-04-24T12:43:17;7.55;;;2.50;;
21233;SDS011;10774;42.178;26.578;2023-04-24T12:45:44;5.65;;;2.72;;
21233;SDS011;10774;42.178;26.578;2023-04-24T12:48:10;6.40;;;2.80;;
21233;SDS011;10774;42.178;26.578;2023-04-24T12:50:36;6.32;;;2.60;;
21233;SDS011;10774;42.178;26.578;2023-04-24T12:53:03;3.95;;;2.70;;
21233;SDS011;10774;42.178;26.578;2023-04-24T12:55:28;4.85;;;2.65;;
21233;SDS011;10774;42.178;26.578;2023-04-24T12:57:54;5.95;;;2.95;;
21233;SDS011;10774;42.178;26.578;2023-04-24T13:00:20;6.43;;;2.70;;
21233;SDS011;10774;42.178;26.578;2023-04-24T13:02:45;5.22;;;2.63;;
21233;SDS011;10774;42.178;26.578;2023-04-24T13:05:11;3.35;;;2.50;;
21233;SDS011;10774;42.178;26.578;2023-04-24T13:07:38;7.50;;;3.20;;
21233;SDS011;10774;42.178;26.578;2023-04-24T13:10:05;6.15;;;2.88;;
21233;SDS011;10774;42.178;26.578;2023-04-24T13:12:30;6.78;;;2.75;;
21233;SDS011;10774;42.178;26.578;2023-04-24T13:14:57;6.82;;;3.00;;
21233;SDS011;10774;42.178;26.578;2023-04-24T13:17:23;5.97;;;2.65;;
21233;SDS011;10774;42.178;26.578;2023-04-24T13:19:48;4.55;;;2.88;;
21233;SDS011;10774;42.178;26.578;2023-04-24T13:22:15;9.73;;;3.30;;
21233;SDS011;10774;42.178;26.578;2023-04-24T13:24:40;8.50;;;2.67;;
21233;SDS011;10774;42.178;26.578;2023-04-24T13:27:06;6.50;;;2.28;;
21233;SDS011;10774;42.178;26.578;2023-04-24T13:29:32;5.13;;;2.72;;
21233;SDS011;10774;42.178;26.578;2023-04-24T13:31:57;5.28;;;3.10;;
21233;SDS011;10774;42.178;26.578;2023-04-24T13:34:23;8.43;;;3.95;;
21233;SDS011;10774;42.178;26.578;2023-04-24T13:36:50;5.75;;;2.67;;
21233;SDS011;10774;42.178;26.578;2023-04-24T13:39:16;4.20;;;2.60;;
21233;SDS011;10774;42.178;26.578;2023-04-24T13:41:42;5.35;;;2.53;;
21233;SDS011;10774;42.178;26.578;2023-04-24T13:44:07;5.38;;;3.20;;
21233;SDS011;10774;42.178;26.578;2023-04-24T13:46:33;6.03;;;2.88;;
21233;SDS011;10774;42.178;26.578;2023-04-24T13:48:58;6.95;;;2.47;;
21233;SDS011;10774;42.178;26.578;2023-04-24T13:51:27;4.07;;;2.97;;
21233;SDS011;10774;42.178;26.578;2023-04-24T13:53:53;5.95;;;3.22;;
21233;SDS011;10774;42.178;26.578;2023-04-24T13:56:19;4.95;;;2.75;;
21233;SDS011;10774;42.178;26.578;2023-04-24T13:58:45;9.20;;;2.88;;
21233;SDS011;10774;42.178;26.578;2023-04-24T14:01:10;6.95;;;2.78;;
21233;SDS011;10774;42.178;26.578;2023-04-24T14:03:37;7.15;;;2.83;;
21233;SDS011;10774;42.178;26.578;2023-04-24T14:06:03;6.80;;;2.72;;
21233;SDS011;10774;42.178;26.578;2023-04-24T14:08:28;3.88;;;2.50;;
21233;SDS011;10774;42.178;26.578;2023-04-24T14:10:54;8.68;;;3.08;;
21233;SDS011;10774;42.178;26.578;2023-04-24T14:13:19;7.45;;;2.42;;
21233;SDS011;10774;42.178;26.578;2023-04-24T14:15:45;6.70;;;2.90;;
21233;SDS011;10774;42.178;26.578;2023-04-24T14:18:11;5.03;;;2.85;;
21233;SDS011;10774;42.178;26.578;2023-04-24T14:20:36;3.53;;;2.22;;
21233;SDS011;10774;42.178;26.578;2023-04-24T14:23:02;5.45;;;2.78;;
21233;SDS011;10774;42.178;26.578;2023-04-24T14:25:28;7.32;;;3.05;;
21233;SDS011;10774;42.178;26.578;2023-04-24T14:27:55;5.65;;;2.90;;
21233;SDS011;10774;42.178;26.578;2023-04-24T14:30:20;6.10;;;3.03;;
21233;SDS011;10774;42.178;26.578;2023-04-24T14:32:46;6.53;;;2.83;;
21233;SDS011;10774;42.178;26.578;2023-04-24T14:35:12;7.72;;;3.00;;
21233;SDS011;10774;42.178;26.578;2023-04-24T14:37:37;10.38;;;3.25;;